Time;durP1;ratioP1;P1;durP2;ratioP2;P2;SDS_P1;SDS_P2;PMS_P1;PMS_P2;Temp;Humidity;BMP_temperature;BMP_pressure;BME280_temperature;BME280_humidity;BME280_pressure;Samples;Min_cycle;Max_cycle;Signal;HPM_P1;HPM_P2
2022/12/11 00:01:16;;;;;;;495.93;200.10;;;;;;;;;;5054878;28;21026;-53
2022/12/11 00:03:43;;;;;;;604.10;231.47;;;;;;;;;;5049749;28;20278;-53
2022/12/11 00:06:10;;;;;;;512.87;201.57;;;;;;;;;;5052962;28;20277;-53
2022/12/11 00:08:36;;;;;;;483.97;189.03;;;;;;;;;;5060012;28;20218;-52
2022/12/11 00:11:02;;;;;;;488.40;193.67;;;;;;;;;;5044174;28;20657;-51
2022/12/11 00:13:28;;;;;;;507.80;194.27;;;;;;;;;;5053076;28;20214;-53
2022/12/11 00:15:54;;;;;;;652.13;265.03;;;;;;;;;;5036616;28;20359;-52
2022/12/11 00:18:20;;;;;;;684.00;280.07;;;;;;;;;;5037916;28;20295;-53
2022/12/11 00:20:46;;;;;;;590.23;234.87;;;;;;;;;;5044342;28;20564;-52
2022/12/11 00:23:12;;;;;;;533.00;208.60;;;;;;;;;;5043714;28;20227;-53
2022/12/11 00:25:46;;;;;;;547.20;216.87;;;;;;;;;;5034139;28;20186;-52
2022/12/11 00:28:12;;;;;;;650.37;254.23;;;;;;;;;;5045884;28;20729;-53
2022/12/11 00:30:39;;;;;;;675.03;266.77;;;;;;;;;;5012379;28;20314;-52
2022/12/11 00:33:05;;;;;;;467.53;179.30;;;;;;;;;;5052076;28;20218;-51
2022/12/11 00:35:32;;;;;;;594.20;233.07;;;;;;;;;;5030259;28;21043;-53
2022/12/11 00:37:58;;;;;;;597.13;223.47;;;;;;;;;;5056097;28;20178;-52
2022/12/11 00:40:24;;;;;;;537.00;210.97;;;;;;;;;;5059094;28;20217;-53
2022/12/11 00:42:50;;;;;;;627.97;256.23;;;;;;;;;;5045353;28;20655;-52
2022/12/11 00:45:16;;;;;;;644.03;258.13;;;;;;;;;;5038741;28;20647;-53
2022/12/11 00:47:42;;;;;;;477.47;194.23;;;;;;;;;;5051507;28;20211;-52
2022/12/11 00:50:09;;;;;;;550.50;220.57;;;;;;;;;;5044300;28;20210;-53
2022/12/11 00:52:35;;;;;;;480.57;188.40;;;;;;;;;;5050545;28;20349;-54
2022/12/11 00:55:01;;;;;;;599.43;235.87;;;;;;;;;;5036823;28;20651;-52
2022/12/11 00:57:27;;;;;;;605.60;242.90;;;;;;;;;;5040569;28;20273;-52
2022/12/11 00:59:53;;;;;;;618.37;246.10;;;;;;;;;;5046316;28;20326;-53
2022/12/11 01:02:19;;;;;;;607.60;234.50;;;;;;;;;;5063881;28;20305;-53
2022/12/11 01:04:45;;;;;;;538.63;211.30;;;;;;;;;;5059087;28;20266;-53
2022/12/11 01:07:11;;;;;;;500.27;197.80;;;;;;;;;;5026251;28;20218;-53
2022/12/11 01:12:21;;;;;;;640.57;258.50;;;;;;;;;;5041650;28;20419;-53
2022/12/11 01:14:48;;;;;;;578.50;231.20;;;;;;;;;;5021690;28;20451;-54
2022/12/11 01:17:14;;;;;;;631.97;253.50;;;;;;;;;;5045005;28;20288;-52
2022/12/11 01:19:40;;;;;;;490.23;188.43;;;;;;;;;;5030839;28;20192;-52
2022/12/11 01:22:06;;;;;;;596.07;247.00;;;;;;;;;;5052833;28;20210;-52
2022/12/11 01:24:32;;;;;;;665.63;265.57;;;;;;;;;;5019251;28;20580;-52
2022/12/11 01:26:58;;;;;;;597.00;247.17;;;;;;;;;;5042711;28;20226;-53
2022/12/11 01:29:24;;;;;;;534.10;212.07;;;;;;;;;;5052536;28;20206;-53
2022/12/11 01:31:50;;;;;;;594.47;230.93;;;;;;;;;;5046026;28;20252;-53
2022/12/11 01:34:16;;;;;;;612.57;235.47;;;;;;;;;;5047838;28;20225;-53
2022/12/11 01:36:42;;;;;;;490.87;196.63;;;;;;;;;;5057783;28;20218;-53
2022/12/11 01:39:09;;;;;;;653.77;263.70;;;;;;;;;;5034681;28;20230;-53
2022/12/11 01:41:35;;;;;;;553.60;225.07;;;;;;;;;;5054563;28;20314;-54
2022/12/11 01:44:08;;;;;;;515.07;204.27;;;;;;;;;;5052619;28;20190;-53
2022/12/11 01:46:35;;;;;;;544.60;217.87;;;;;;;;;;5044038;28;20171;-53
2022/12/11 01:49:03;;;;;;;589.43;237.17;;;;;;;;;;5027031;28;20333;-53
2022/12/11 01:51:30;;;;;;;592.43;232.10;;;;;;;;;;5049182;28;21151;-54
2022/12/11 01:53:58;;;;;;;562.97;227.37;;;;;;;;;;5027736;28;21808;-53
2022/12/11 01:56:25;;;;;;;602.00;234.57;;;;;;;;;;5037146;28;20221;-52
2022/12/11 01:58:54;;;;;;;564.30;238.53;;;;;;;;;;5030492;28;20193;-53
2022/12/11 02:01:32;;;;;;;540.70;220.87;;;;;;;;;;5043798;28;20213;-53
2022/12/11 02:03:58;;;;;;;498.20;201.77;;;;;;;;;;5031722;28;20214;-52
2022/12/11 02:06:35;;;;;;;546.47;223.37;;;;;;;;;;5038057;28;20661;-52
2022/12/11 02:09:01;;;;;;;602.00;248.20;;;;;;;;;;5041514;28;20503;-52
2022/12/11 02:11:32;;;;;;;574.53;229.53;;;;;;;;;;5043283;28;20221;-53
2022/12/11 02:14:01;;;;;;;647.90;259.10;;;;;;;;;;5040149;28;20598;-53
2022/12/11 02:16:38;;;;;;;557.17;236.60;;;;;;;;;;5048105;28;20191;-52
2022/12/11 02:19:21;;;;;;;646.97;248.30;;;;;;;;;;5041635;28;20222;-51
2022/12/11 02:21:52;;;;;;;510.23;217.97;;;;;;;;;;5021412;28;20282;-53
2022/12/11 02:24:24;;;;;;;504.80;197.70;;;;;;;;;;5036149;28;20222;-53
2022/12/11 02:26:53;;;;;;;621.57;256.10;;;;;;;;;;5041758;28;20218;-52
2022/12/11 02:29:42;;;;;;;676.07;277.33;;;;;;;;;;5040767;28;20211;-53
2022/12/11 02:32:17;;;;;;;624.80;256.43;;;;;;;;;;5026642;28;20194;-52
2022/12/11 02:34:46;;;;;;;561.73;235.77;;;;;;;;;;5050883;28;20190;-52
2022/12/11 02:37:17;;;;;;;560.17;228.70;;;;;;;;;;5064144;28;20272;-51
2022/12/11 02:39:44;;;;;;;681.23;287.13;;;;;;;;;;5010497;28;20337;-52
2022/12/11 02:42:12;;;;;;;626.90;253.87;;;;;;;;;;5032669;28;20210;-52
2022/12/11 02:44:39;;;;;;;543.17;221.90;;;;;;;;;;5035835;28;20213;-52
2022/12/11 02:47:07;;;;;;;507.17;199.97;;;;;;;;;;5034323;28;20170;-52
2022/12/11 02:49:34;;;;;;;647.90;249.70;;;;;;;;;;5054561;28;20627;-52
2022/12/11 02:52:02;;;;;;;540.40;214.40;;;;;;;;;;5049473;28;20257;-53
2022/12/11 02:54:31;;;;;;;654.87;275.63;;;;;;;;;;5051658;28;20214;-53
2022/12/11 02:57:01;;;;;;;494.60;196.60;;;;;;;;;;5034154;28;20245;-54
2022/12/11 02:59:30;;;;;;;545.37;216.00;;;;;;;;;;5049668;28;20214;-53
2022/12/11 03:01:56;;;;;;;528.10;207.20;;;;;;;;;;5031138;28;20202;-53
2022/12/11 03:04:23;;;;;;;665.63;273.57;;;;;;;;;;5039664;28;20599;-53
2022/12/11 03:06:52;;;;;;;645.93;253.57;;;;;;;;;;5044264;28;20258;-53
2022/12/11 03:09:18;;;;;;;520.33;209.60;;;;;;;;;;5033565;28;20858;-53
2022/12/11 03:11:45;;;;;;;655.97;262.33;;;;;;;;;;5034066;28;20226;-52
2022/12/11 03:14:11;;;;;;;505.20;213.23;;;;;;;;;;5024684;28;20203;-52
2022/12/11 03:16:42;;;;;;;623.60;253.50;;;;;;;;;;5036393;28;20227;-53
2022/12/11 03:19:27;;;;;;;599.97;246.53;;;;;;;;;;5048181;28;20253;-53
2022/12/11 03:21:55;;;;;;;508.77;205.43;;;;;;;;;;5046567;28;20211;-52
2022/12/11 03:24:29;;;;;;;591.83;239.13;;;;;;;;;;5027134;28;20716;-53
2022/12/11 03:26:58;;;;;;;663.53;268.17;;;;;;;;;;5046466;28;20304;-53
2022/12/11 03:29:26;;;;;;;551.90;220.63;;;;;;;;;;5026883;28;20219;-52
2022/12/11 03:32:02;;;;;;;638.43;257.80;;;;;;;;;;5053778;28;20210;-53
2022/12/11 03:34:30;;;;;;;506.73;211.10;;;;;;;;;;5048394;28;20260;-53
2022/12/11 03:36:57;;;;;;;551.80;222.90;;;;;;;;;;5039750;28;20225;-53
2022/12/11 03:39:27;;;;;;;576.37;235.33;;;;;;;;;;5025544;28;20629;-52
2022/12/11 03:41:54;;;;;;;679.67;272.23;;;;;;;;;;5058457;28;20704;-52
2022/12/11 03:44:20;;;;;;;642.63;261.13;;;;;;;;;;5040014;28;20734;-53
2022/12/11 03:46:47;;;;;;;543.63;224.97;;;;;;;;;;5027519;28;20197;-53
2022/12/11 03:49:19;;;;;;;619.97;244.50;;;;;;;;;;5044442;28;20306;-53
2022/12/11 03:51:46;;;;;;;523.03;210.67;;;;;;;;;;5050170;28;20892;-53
2022/12/11 03:54:12;;;;;;;677.83;280.83;;;;;;;;;;5050431;28;20218;-53
2022/12/11 03:56:40;;;;;;;596.97;242.57;;;;;;;;;;5041340;28;20211;-52
2022/12/11 03:59:06;;;;;;;487.63;197.20;;;;;;;;;;5048998;28;20179;-53
2022/12/11 04:01:32;;;;;;;599.23;242.93;;;;;;;;;;5058139;28;20221;-52
2022/12/11 04:03:58;;;;;;;544.30;224.60;;;;;;;;;;5040804;28;20226;-52
2022/12/11 04:06:24;;;;;;;600.40;247.93;;;;;;;;;;5032382;28;20346;-52
2022/12/11 04:08:50;;;;;;;553.13;224.87;;;;;;;;;;5045345;28;20597;-52
2022/12/11 04:11:35;;;;;;;595.20;246.43;;;;;;;;;;5043580;28;20218;-52
2022/12/11 04:16:50;;;;;;;529.63;214.00;;;;;;;;;;5048198;28;20209;-53
2022/12/11 04:24:49;;;;;;;643.53;269.60;;;;;;;;;;5043866;28;20222;-52
2022/12/11 04:27:47;;;;;;;497.70;202.53;;;;;;;;;;5046492;28;20371;-53
2022/12/11 04:30:03;;;;;;;609.10;246.13;;;;;;;;;;5047788;28;20841;-54
2022/12/11 04:32:29;;;;;;;644.17;262.20;;;;;;;;;;5035603;28;20745;-53
2022/12/11 04:34:55;;;;;;;677.70;288.87;;;;;;;;;;5040478;28;20179;-53
2022/12/11 04:37:21;;;;;;;539.97;221.73;;;;;;;;;;5025319;28;20927;-53
2022/12/11 04:39:47;;;;;;;502.83;210.77;;;;;;;;;;5044812;28;20306;-53
2022/12/11 04:42:13;;;;;;;683.57;282.00;;;;;;;;;;5037401;28;20522;-55
2022/12/11 04:44:40;;;;;;;571.80;238.77;;;;;;;;;;5052693;28;20210;-53
2022/12/11 04:47:06;;;;;;;618.43;251.77;;;;;;;;;;5047322;28;20287;-53
2022/12/11 04:49:31;;;;;;;603.77;245.20;;;;;;;;;;5038249;28;20239;-53
2022/12/11 04:51:57;;;;;;;612.30;248.77;;;;;;;;;;5038801;28;20295;-53
2022/12/11 04:54:23;;;;;;;552.13;222.87;;;;;;;;;;5055879;28;20227;-54
2022/12/11 04:56:49;;;;;;;660.13;268.67;;;;;;;;;;5023289;28;20214;-52
2022/12/11 04:59:16;;;;;;;670.40;273.03;;;;;;;;;;5020616;28;20232;-52
2022/12/11 05:01:42;;;;;;;587.00;239.37;;;;;;;;;;5050327;28;20308;-53
2022/12/11 05:04:08;;;;;;;622.30;254.87;;;;;;;;;;5045170;28;20227;-53
2022/12/11 05:06:34;;;;;;;527.63;224.17;;;;;;;;;;5045534;28;20210;-53
2022/12/11 05:09:00;;;;;;;665.80;281.33;;;;;;;;;;5041642;28;20274;-53
2022/12/11 05:11:26;;;;;;;526.60;217.63;;;;;;;;;;5039613;28;20924;-52
2022/12/11 05:13:52;;;;;;;543.37;219.70;;;;;;;;;;5050550;28;20287;-53
2022/12/11 05:16:19;;;;;;;642.53;275.73;;;;;;;;;;5017648;28;20302;-52
2022/12/11 05:18:46;;;;;;;572.77;240.33;;;;;;;;;;5038630;28;20710;-53
2022/12/11 05:21:13;;;;;;;665.50;268.70;;;;;;;;;;5046428;28;20726;-52
2022/12/11 05:23:39;;;;;;;577.73;236.80;;;;;;;;;;5046045;28;20226;-53
2022/12/11 05:26:06;;;;;;;686.67;303.23;;;;;;;;;;5041109;28;21438;-53
2022/12/11 05:28:34;;;;;;;715.57;302.97;;;;;;;;;;5043643;28;20233;-54
2022/12/11 05:31:01;;;;;;;632.40;264.13;;;;;;;;;;5043748;28;20232;-54
2022/12/11 05:33:28;;;;;;;548.53;233.93;;;;;;;;;;5041521;28;20214;-53
2022/12/11 05:35:54;;;;;;;547.33;221.37;;;;;;;;;;5034735;28;20218;-54
2022/12/11 05:38:21;;;;;;;588.87;230.53;;;;;;;;;;5050168;28;20340;-53
2022/12/11 05:40:57;;;;;;;516.57;195.90;;;;;;;;;;5042495;28;20186;-53
2022/12/11 05:43:24;;;;;;;614.53;242.60;;;;;;;;;;5044652;28;20284;-53
2022/12/11 05:45:50;;;;;;;536.53;214.97;;;;;;;;;;5041074;28;20270;-51
2022/12/11 05:48:16;;;;;;;529.80;214.60;;;;;;;;;;5050637;28;20207;-53
2022/12/11 05:50:42;;;;;;;571.03;225.07;;;;;;;;;;5033708;28;20220;-53
2022/12/11 05:53:08;;;;;;;612.77;237.33;;;;;;;;;;5032267;28;20212;-52
2022/12/11 05:55:34;;;;;;;611.67;252.73;;;;;;;;;;5020198;28;20578;-52
2022/12/11 05:58:00;;;;;;;530.73;202.53;;;;;;;;;;5031652;28;20216;-53
2022/12/11 06:00:26;;;;;;;552.57;225.73;;;;;;;;;;5028547;28;20223;-52
2022/12/11 06:02:52;;;;;;;467.53;191.97;;;;;;;;;;5022466;28;20620;-53
2022/12/11 06:05:18;;;;;;;557.83;230.40;;;;;;;;;;5018543;28;20226;-53
2022/12/11 06:07:44;;;;;;;540.13;215.57;;;;;;;;;;5013386;28;20275;-53
2022/12/11 06:10:10;;;;;;;487.87;195.33;;;;;;;;;;5004880;28;20223;-53
2022/12/11 06:12:36;;;;;;;590.13;243.50;;;;;;;;;;5021498;28;20600;-52
2022/12/11 06:15:04;;;;;;;546.07;226.53;;;;;;;;;;5021503;28;20986;-53
2022/12/11 06:17:30;;;;;;;578.47;238.57;;;;;;;;;;5025449;28;20280;-52
2022/12/11 06:19:56;;;;;;;454.53;184.37;;;;;;;;;;5026637;28;20617;-53
2022/12/11 06:22:22;;;;;;;551.00;219.80;;;;;;;;;;5009104;28;20684;-52
2022/12/11 06:24:48;;;;;;;606.43;248.23;;;;;;;;;;5039454;28;20222;-53
2022/12/11 06:27:14;;;;;;;581.77;236.40;;;;;;;;;;5034917;28;20259;-53
2022/12/11 06:29:40;;;;;;;490.27;204.57;;;;;;;;;;5029198;28;20220;-52
2022/12/11 06:32:06;;;;;;;483.07;193.87;;;;;;;;;;5027807;28;20316;-51
2022/12/11 06:34:32;;;;;;;621.60;240.10;;;;;;;;;;5026307;28;20702;-52
2022/12/11 06:36:58;;;;;;;517.63;213.13;;;;;;;;;;5024018;28;20265;-52
2022/12/11 06:39:24;;;;;;;619.87;254.63;;;;;;;;;;5016602;28;20208;-53
2022/12/11 06:41:50;;;;;;;510.90;204.37;;;;;;;;;;5016951;28;20263;-52
2022/12/11 06:44:16;;;;;;;551.17;218.40;;;;;;;;;;5026872;28;20223;-52
2022/12/11 06:46:42;;;;;;;618.87;253.97;;;;;;;;;;5004583;28;20215;-52
2022/12/11 06:49:08;;;;;;;622.07;257.83;;;;;;;;;;5016467;28;20632;-53
2022/12/11 06:51:34;;;;;;;715.63;278.53;;;;;;;;;;5025367;28;20214;-52
2022/12/11 06:54:00;;;;;;;568.13;238.17;;;;;;;;;;5015966;28;20302;-52
2022/12/11 06:56:26;;;;;;;772.70;323.53;;;;;;;;;;5010280;28;20218;-53
2022/12/11 06:58:52;;;;;;;567.13;225.23;;;;;;;;;;5027242;28;20882;-52
2022/12/11 07:01:23;;;;;;;576.90;234.43;;;;;;;;;;5022181;28;20777;-52
2022/12/11 07:03:49;;;;;;;683.97;279.03;;;;;;;;;;5020462;28;20707;-52
2022/12/11 07:06:15;;;;;;;505.33;204.10;;;;;;;;;;5018185;28;22065;-52
2022/12/11 07:08:42;;;;;;;736.03;288.43;;;;;;;;;;5023340;28;20437;-52
2022/12/11 07:11:09;;;;;;;536.70;214.63;;;;;;;;;;5023354;28;20637;-52
2022/12/11 07:13:36;;;;;;;697.07;284.30;;;;;;;;;;5011605;28;20266;-52
2022/12/11 07:16:03;;;;;;;502.90;208.13;;;;;;;;;;5012533;28;21063;-52
2022/12/11 07:18:30;;;;;;;719.20;293.17;;;;;;;;;;5004990;28;20307;-52
2022/12/11 07:21:00;;;;;;;701.60;280.13;;;;;;;;;;5005437;28;20911;-52
2022/12/11 07:23:27;;;;;;;794.63;323.87;;;;;;;;;;5003704;28;20474;-52
2022/12/11 07:25:53;;;;;;;512.00;206.10;;;;;;;;;;5016761;28;20650;-52
2022/12/11 07:28:19;;;;;;;510.70;207.03;;;;;;;;;;5029186;28;20227;-52
2022/12/11 07:30:45;;;;;;;674.70;276.83;;;;;;;;;;5017245;28;20227;-52
2022/12/11 07:33:11;;;;;;;510.90;207.77;;;;;;;;;;5013665;28;20239;-52
2022/12/11 07:35:37;;;;;;;650.73;267.43;;;;;;;;;;5005395;28;20305;-52
2022/12/11 07:38:03;;;;;;;570.07;234.70;;;;;;;;;;5026910;28;20183;-52
2022/12/11 07:40:30;;;;;;;625.17;262.73;;;;;;;;;;5013054;28;20224;-52
2022/12/11 07:42:56;;;;;;;546.43;225.30;;;;;;;;;;5013841;28;20250;-52
2022/12/11 07:45:22;;;;;;;710.90;293.80;;;;;;;;;;5018305;28;20223;-52
2022/12/11 07:47:48;;;;;;;682.30;286.50;;;;;;;;;;5027059;28;20295;-53
2022/12/11 07:50:14;;;;;;;564.13;236.63;;;;;;;;;;5026366;28;20300;-52
2022/12/11 07:52:40;;;;;;;688.20;297.20;;;;;;;;;;5017407;28;20218;-52
2022/12/11 07:55:06;;;;;;;565.00;233.33;;;;;;;;;;5011084;28;20347;-52
2022/12/11 07:57:32;;;;;;;557.47;225.20;;;;;;;;;;5002458;28;20274;-52
2022/12/11 07:59:58;;;;;;;640.47;269.80;;;;;;;;;;5020829;28;20265;-52
2022/12/11 08:02:24;;;;;;;583.10;237.23;;;;;;;;;;5026828;28;20280;-52
2022/12/11 08:07:55;;;;;;;882.50;382.90;;;;;;;;;;4995543;28;20440;-53
2022/12/11 08:10:21;;;;;;;646.87;250.83;;;;;;;;;;5015642;28;21094;-52
2022/12/11 08:12:47;;;;;;;692.80;275.27;;;;;;;;;;5026712;28;20233;-52
2022/12/11 08:15:13;;;;;;;689.73;269.80;;;;;;;;;;5040562;28;20353;-52
2022/12/11 08:17:39;;;;;;;570.50;232.23;;;;;;;;;;5027075;28;20219;-52
2022/12/11 08:20:07;;;;;;;614.17;246.33;;;;;;;;;;5043562;28;20722;-52
2022/12/11 08:22:33;;;;;;;531.80;211.13;;;;;;;;;;5034393;28;20230;-52
2022/12/11 08:24:59;;;;;;;606.10;238.83;;;;;;;;;;5021054;28;20302;-52
2022/12/11 08:27:25;;;;;;;664.80;259.80;;;;;;;;;;5042900;28;20297;-52
2022/12/11 08:29:51;;;;;;;660.53;247.93;;;;;;;;;;5049027;28;20202;-52
2022/12/11 08:32:17;;;;;;;572.37;215.00;;;;;;;;;;5024717;28;20267;-52
2022/12/11 08:34:43;;;;;;;492.90;189.90;;;;;;;;;;5044422;28;22092;-52
2022/12/11 08:37:09;;;;;;;500.83;190.07;;;;;;;;;;5046054;28;20206;-53
2022/12/11 08:39:35;;;;;;;422.80;170.50;;;;;;;;;;5044070;28;20561;-52
2022/12/11 08:42:01;;;;;;;604.13;226.60;;;;;;;;;;5049248;28;20223;-54
2022/12/11 08:44:28;;;;;;;613.80;231.27;;;;;;;;;;5043637;28;20206;-53
2022/12/11 08:46:54;;;;;;;633.00;247.60;;;;;;;;;;5041303;28;20182;-53
2022/12/11 08:49:20;;;;;;;722.10;280.07;;;;;;;;;;5032597;28;20343;-53
2022/12/11 08:51:46;;;;;;;483.23;189.97;;;;;;;;;;5018697;28;20537;-53
2022/12/11 08:54:12;;;;;;;577.73;233.20;;;;;;;;;;5012434;28;20355;-53
2022/12/11 08:56:38;;;;;;;541.73;206.77;;;;;;;;;;5058884;28;20254;-53
2022/12/11 08:59:05;;;;;;;486.30;196.13;;;;;;;;;;5048674;28;20297;-52
2022/12/11 09:01:31;;;;;;;620.23;236.67;;;;;;;;;;5030040;28;20408;-53
2022/12/11 09:03:58;;;;;;;482.50;191.50;;;;;;;;;;5054433;28;20226;-53
2022/12/11 09:06:25;;;;;;;590.53;229.80;;;;;;;;;;5047619;28;20234;-53
2022/12/11 09:08:52;;;;;;;519.67;205.20;;;;;;;;;;5049991;28;20644;-53
2022/12/11 09:11:20;;;;;;;584.63;234.30;;;;;;;;;;5050837;28;20226;-53
2022/12/11 09:13:46;;;;;;;577.17;227.07;;;;;;;;;;5016232;28;21504;-54
2022/12/11 09:16:14;;;;;;;671.00;265.27;;;;;;;;;;5031388;28;20207;-53
2022/12/11 09:18:40;;;;;;;434.10;168.30;;;;;;;;;;5046564;28;20643;-53
2022/12/11 09:21:07;;;;;;;508.67;200.17;;;;;;;;;;5039090;28;20215;-53
2022/12/11 09:23:33;;;;;;;636.73;251.93;;;;;;;;;;5050097;28;20213;-53
2022/12/11 09:26:00;;;;;;;627.33;260.40;;;;;;;;;;5043744;28;20182;-54
2022/12/11 09:28:26;;;;;;;664.67;263.40;;;;;;;;;;5010113;28;20190;-53
2022/12/11 09:30:52;;;;;;;527.90;211.33;;;;;;;;;;5043447;28;20220;-53
2022/12/11 09:33:18;;;;;;;511.83;204.50;;;;;;;;;;5038968;28;21563;-53
2022/12/11 09:35:44;;;;;;;494.87;209.77;;;;;;;;;;5020708;28;20763;-53
2022/12/11 09:38:10;;;;;;;685.27;277.10;;;;;;;;;;5045243;28;20291;-53
2022/12/11 09:40:42;;;;;;;680.03;271.43;;;;;;;;;;5025653;28;20182;-53
2022/12/11 09:43:23;;;;;;;589.83;238.37;;;;;;;;;;5039140;28;20218;-55
2022/12/11 09:45:50;;;;;;;565.43;227.87;;;;;;;;;;5046125;28;20320;-56
2022/12/11 09:48:20;;;;;;;610.23;254.97;;;;;;;;;;5029752;28;20565;-56
2022/12/11 09:50:47;;;;;;;668.47;259.97;;;;;;;;;;5029575;28;20210;-55
2022/12/11 09:53:23;;;;;;;655.43;269.80;;;;;;;;;;5058117;28;20236;-55
2022/12/11 09:55:49;;;;;;;566.27;239.73;;;;;;;;;;5053439;28;21408;-53
2022/12/11 09:58:21;;;;;;;641.30;270.60;;;;;;;;;;5050640;28;20271;-52
2022/12/11 10:00:50;;;;;;;757.53;314.23;;;;;;;;;;5028955;28;20293;-53
2022/12/11 10:03:31;;;;;;;533.30;214.90;;;;;;;;;;5055801;28;20228;-53
2022/12/11 10:06:00;;;;;;;648.10;271.90;;;;;;;;;;5041070;28;20263;-54
2022/12/11 10:08:29;;;;;;;474.23;181.17;;;;;;;;;;5057357;28;20222;-53
2022/12/11 10:11:04;;;;;;;465.57;159.17;;;;;;;;;;5048117;28;20307;-53
2022/12/11 10:13:30;;;;;;;464.73;168.60;;;;;;;;;;5050424;28;20697;-53
2022/12/11 10:16:10;;;;;;;587.53;182.50;;;;;;;;;;5053514;28;20280;-50
2022/12/11 10:18:37;;;;;;;403.57;129.93;;;;;;;;;;5067375;28;20214;-51
2022/12/11 10:21:03;;;;;;;552.13;182.63;;;;;;;;;;5059168;28;20209;-53
2022/12/11 10:24:02;;;;;;;377.47;137.70;;;;;;;;;;5052238;28;20218;-53
2022/12/11 10:26:28;;;;;;;606.47;200.37;;;;;;;;;;5020862;28;20351;-53
2022/12/11 10:28:58;;;;;;;451.73;145.90;;;;;;;;;;5063492;28;20677;-54
2022/12/11 10:31:27;;;;;;;544.87;187.50;;;;;;;;;;5061145;28;20297;-54
2022/12/11 10:34:12;;;;;;;353.47;113.97;;;;;;;;;;5068799;28;20260;-53
2022/12/11 10:36:40;;;;;;;507.00;169.43;;;;;;;;;;5063958;28;20543;-53
2022/12/11 10:39:14;;;;;;;359.83;117.33;;;;;;;;;;5058599;28;20214;-52
2022/12/11 10:41:42;;;;;;;513.20;167.37;;;;;;;;;;5053488;28;20250;-53
2022/12/11 10:44:17;;;;;;;491.50;173.63;;;;;;;;;;5037019;28;20222;-54
2022/12/11 10:46:43;;;;;;;563.20;187.67;;;;;;;;;;5061350;28;20599;-53
2022/12/11 10:49:21;;;;;;;503.23;165.87;;;;;;;;;;5060620;28;20214;-53
2022/12/11 10:51:47;;;;;;;441.40;141.43;;;;;;;;;;5058784;28;20232;-54
2022/12/11 10:54:17;;;;;;;586.27;197.23;;;;;;;;;;5059528;28;20665;-53
2022/12/11 10:56:46;;;;;;;535.90;200.50;;;;;;;;;;5070099;28;20218;-53
2022/12/11 10:59:27;;;;;;;464.37;161.10;;;;;;;;;;5069329;28;20273;-53
2022/12/11 11:01:53;;;;;;;590.37;194.90;;;;;;;;;;5065538;28;20193;-52
2022/12/11 11:04:34;;;;;;;442.53;154.43;;;;;;;;;;5048351;28;20346;-53
2022/12/11 11:07:19;;;;;;;443.03;158.33;;;;;;;;;;5045182;28;20566;-53
2022/12/11 11:09:46;;;;;;;470.20;172.37;;;;;;;;;;5068991;28;20257;-53
2022/12/11 11:12:18;;;;;;;579.33;208.20;;;;;;;;;;5054989;28;20356;-54
2022/12/11 11:14:44;;;;;;;519.03;189.70;;;;;;;;;;5069478;28;20669;-54
2022/12/11 11:17:13;;;;;;;606.07;205.20;;;;;;;;;;5065140;28;20216;-53
2022/12/11 11:19:39;;;;;;;439.70;160.47;;;;;;;;;;5047621;28;20178;-53
2022/12/11 11:22:09;;;;;;;580.33;210.57;;;;;;;;;;5067407;28;20213;-54
2022/12/11 11:24:35;;;;;;;585.77;181.90;;;;;;;;;;5063427;28;20207;-54
2022/12/11 11:27:02;;;;;;;571.60;205.37;;;;;;;;;;5072632;28;20207;-53
2022/12/11 11:29:30;;;;;;;437.23;159.77;;;;;;;;;;5062181;28;20214;-54
2022/12/11 11:31:56;;;;;;;497.53;163.50;;;;;;;;;;5054193;28;20334;-54
2022/12/11 11:34:24;;;;;;;555.67;195.80;;;;;;;;;;5077161;28;20494;-53
2022/12/11 11:36:59;;;;;;;431.30;152.30;;;;;;;;;;5070937;28;20438;-53
2022/12/11 11:39:37;;;;;;;590.17;185.90;;;;;;;;;;5076637;28;20208;-54
2022/12/11 11:42:09;;;;;;;408.77;140.43;;;;;;;;;;5068392;28;20206;-53
2022/12/11 11:44:40;;;;;;;430.23;144.53;;;;;;;;;;5066973;28;21414;-53
2022/12/11 11:47:06;;;;;;;448.90;153.90;;;;;;;;;;5053559;28;20195;-53
2022/12/11 11:50:02;;;;;;;587.97;189.10;;;;;;;;;;5070381;28;20310;-55
2022/12/11 11:52:39;;;;;;;461.03;148.40;;;;;;;;;;5026992;28;20573;-53
2022/12/11 11:55:14;;;;;;;636.03;207.07;;;;;;;;;;5031136;28;20211;-53
2022/12/11 11:57:47;;;;;;;505.57;172.00;;;;;;;;;;5029826;28;20773;-53
2022/12/11 12:00:23;;;;;;;566.60;185.97;;;;;;;;;;5022381;28;20211;-53
2022/12/11 12:02:53;;;;;;;423.73;140.83;;;;;;;;;;5030061;28;20338;-53
2022/12/11 12:05:22;;;;;;;339.50;111.17;;;;;;;;;;5035594;28;20213;-53
2022/12/11 12:07:54;;;;;;;483.20;169.93;;;;;;;;;;5036010;28;20671;-53
2022/12/11 12:10:28;;;;;;;593.00;204.27;;;;;;;;;;5030971;28;20204;-53
2022/12/11 12:12:57;;;;;;;405.53;134.20;;;;;;;;;;5036228;28;20227;-53
2022/12/11 12:15:47;;;;;;;620.50;207.87;;;;;;;;;;5035458;28;20800;-54
2022/12/11 12:18:32;;;;;;;458.10;155.03;;;;;;;;;;5038216;28;20265;-54
2022/12/11 12:20:59;;;;;;;624.00;219.37;;;;;;;;;;5021823;28;20232;-52
2022/12/11 12:23:24;;;;;;;573.63;186.53;;;;;;;;;;5035299;28;20272;-52
2022/12/11 12:26:10;;;;;;;458.77;150.43;;;;;;;;;;5041148;28;20213;-53
2022/12/11 12:28:36;;;;;;;405.93;127.57;;;;;;;;;;5044373;28;20406;-54
2022/12/11 12:31:24;;;;;;;604.77;186.77;;;;;;;;;;5062303;28;20249;-53
2022/12/11 12:33:59;;;;;;;569.87;179.33;;;;;;;;;;5055247;28;20226;-53
2022/12/11 12:36:43;;;;;;;487.00;164.90;;;;;;;;;;5045102;28;20253;-52
2022/12/11 12:39:28;;;;;;;555.07;193.50;;;;;;;;;;5047841;28;21194;-53
2022/12/11 12:42:03;;;;;;;485.90;167.07;;;;;;;;;;5052368;28;20299;-53
2022/12/11 12:44:31;;;;;;;395.70;131.30;;;;;;;;;;5040264;28;20312;-53
2022/12/11 12:47:00;;;;;;;511.17;169.53;;;;;;;;;;5049019;28;20202;-53
2022/12/11 12:49:44;;;;;;;549.30;189.77;;;;;;;;;;5043911;28;20793;-53
2022/12/11 12:52:13;;;;;;;385.70;146.47;;;;;;;;;;5049211;28;20222;-53
2022/12/11 12:54:40;;;;;;;585.73;203.43;;;;;;;;;;5031050;28;20220;-53
2022/12/11 12:57:06;;;;;;;396.63;145.67;;;;;;;;;;5054235;28;20550;-53
2022/12/11 12:59:32;;;;;;;454.43;153.47;;;;;;;;;;5055288;28;20258;-53
2022/12/11 13:02:00;;;;;;;409.53;141.03;;;;;;;;;;5050793;28;20466;-53
2022/12/11 13:04:37;;;;;;;588.40;209.00;;;;;;;;;;5041132;28;20592;-55
2022/12/11 13:07:15;;;;;;;615.00;214.90;;;;;;;;;;5025078;28;20211;-54
2022/12/11 13:09:41;;;;;;;595.67;186.83;;;;;;;;;;5040170;28;20203;-50
2022/12/11 13:12:15;;;;;;;520.40;172.07;;;;;;;;;;5040826;28;20721;-52
2022/12/11 13:14:41;;;;;;;588.03;198.60;;;;;;;;;;5057738;28;20210;-52
2022/12/11 13:17:22;;;;;;;560.83;202.63;;;;;;;;;;5046058;28;20830;-53
2022/12/11 13:19:49;;;;;;;606.37;201.23;;;;;;;;;;5047162;28;20245;-53
2022/12/11 13:22:15;;;;;;;442.07;147.57;;;;;;;;;;5050946;28;20225;-53
2022/12/11 13:24:46;;;;;;;451.20;149.97;;;;;;;;;;5043063;28;20608;-53
2022/12/11 13:27:26;;;;;;;625.27;203.60;;;;;;;;;;5027820;28;20238;-53
2022/12/11 13:30:04;;;;;;;569.13;204.20;;;;;;;;;;5049756;28;20283;-53
2022/12/11 13:32:30;;;;;;;478.83;159.57;;;;;;;;;;5049296;28;20691;-53
2022/12/11 13:34:59;;;;;;;447.93;158.60;;;;;;;;;;5058895;28;20210;-53
2022/12/11 13:37:33;;;;;;;468.73;159.40;;;;;;;;;;5032639;28;20195;-53
2022/12/11 13:40:00;;;;;;;501.07;166.20;;;;;;;;;;5018126;28;20227;-54
2022/12/11 13:42:31;;;;;;;656.93;219.87;;;;;;;;;;5040790;28;20227;-52
2022/12/11 13:44:58;;;;;;;424.70;142.40;;;;;;;;;;5024771;28;20310;-53
2022/12/11 13:47:24;;;;;;;605.37;197.47;;;;;;;;;;5038174;28;20213;-52
2022/12/11 13:49:54;;;;;;;443.13;155.07;;;;;;;;;;5038090;28;20237;-53
2022/12/11 13:52:21;;;;;;;609.50;201.53;;;;;;;;;;5017440;28;20305;-53
2022/12/11 13:54:48;;;;;;;551.33;178.20;;;;;;;;;;5035491;28;20295;-53
2022/12/11 13:57:19;;;;;;;482.80;173.17;;;;;;;;;;5029385;28;20218;-53
2022/12/11 13:59:52;;;;;;;40.70;26.03;;;;;;;;;;5060410;28;20211;-53
2022/12/11 14:02:29;;;;;;;48.37;28.00;;;;;;;;;;5064979;28;20294;-53
2022/12/11 14:04:57;;;;;;;77.03;35.67;;;;;;;;;;5060219;28;20274;-53
2022/12/11 14:07:26;;;;;;;133.03;52.20;;;;;;;;;;5057785;28;20183;-53
2022/12/11 14:09:53;;;;;;;82.30;37.17;;;;;;;;;;5059675;28;20239;-52
2022/12/11 14:12:21;;;;;;;171.57;63.47;;;;;;;;;;5058244;28;20260;-53
2022/12/11 14:14:50;;;;;;;62.63;32.13;;;;;;;;;;5064794;28;20207;-53
2022/12/11 14:17:21;;;;;;;83.70;38.13;;;;;;;;;;5063577;28;20617;-53